Time;durP1;ratioP1;P1;durP2;ratioP2;P2;SDS_P1;SDS_P2;PMS_P1;PMS_P2;Temp;Humidity;BMP_temperature;BMP_pressure;BME280_temperature;BME280_humidity;BME280_pressure;Samples;Min_cycle;Max_cycle;Signal;HPM_P1;HPM_P2
2023/04/18 00:01:20;;;;;;;25.03;13.43;;;;;;;-142.75;100.00;78466.38;5031410;28;20063;-65
2023/04/18 00:03:46;;;;;;;29.83;13.13;;;;;;;-142.75;100.00;78458.50;5031076;28;20049;-65
2023/04/18 00:06:12;;;;;;;23.13;13.53;;;;;;;-142.75;100.00;78476.22;5031613;28;20021;-65
2023/04/18 00:08:38;;;;;;;26.37;12.77;;;;;;;-142.75;100.00;78468.34;5013608;28;20447;-64
2023/04/18 00:11:03;;;;;;;24.17;12.73;;;;;;;-142.75;100.00;78468.34;5031317;28;20029;-62
2023/04/18 00:13:29;;;;;;;28.10;13.60;;;;;;;-142.75;100.00;78480.16;5031081;28;20084;-64
2023/04/18 00:15:54;;;;;;;23.97;12.80;;;;;;;-142.75;100.00;78482.13;5031088;28;20036;-64
2023/04/18 00:18:20;;;;;;;25.53;13.73;;;;;;;-142.75;100.00;78484.09;5031080;28;20036;-64
2023/04/18 00:20:45;;;;;;;27.83;13.30;;;;;;;-142.75;100.00;78480.16;5031208;28;20030;-64
2023/04/18 00:23:12;;;;;;;22.07;12.87;;;;;;;-142.75;100.00;78476.22;5013271;28;20187;-64
2023/04/18 00:25:38;;;;;;;25.43;12.57;;;;;;;-142.75;100.00;78486.06;5031210;28;20021;-63
2023/04/18 00:28:04;;;;;;;28.73;13.27;;;;;;;-142.75;100.00;78488.03;5031084;28;20481;-64
2023/04/18 00:30:29;;;;;;;27.67;14.47;;;;;;;-142.75;100.00;78501.84;5031103;28;20030;-65
2023/04/18 00:32:54;;;;;;;24.80;13.23;;;;;;;-142.75;100.00;78501.84;5031009;28;20164;-65
2023/04/18 00:35:20;;;;;;;23.50;13.37;;;;;;;-142.75;100.00;78495.94;5031035;28;20029;-64
2023/04/18 00:37:45;;;;;;;23.60;12.57;;;;;;;-142.75;100.00;78490.00;5030857;28;20032;-64
2023/04/18 00:40:10;;;;;;;26.73;13.70;;;;;;;-142.75;100.00;78495.94;5031070;28;20022;-63
2023/04/18 00:42:36;;;;;;;26.37;14.00;;;;;;;-142.75;100.00;78499.88;5030993;28;20025;-63
2023/04/18 00:45:01;;;;;;;38.97;14.53;;;;;;;-142.75;100.00;78486.06;5010790;28;20034;-64
2023/04/18 00:47:27;;;;;;;26.03;14.10;;;;;;;-142.75;100.00;78493.97;5012753;28;20032;-64
2023/04/18 00:49:53;;;;;;;25.13;12.33;;;;;;;-142.75;100.00;78511.69;5014827;28;20104;-64
2023/04/18 00:52:19;;;;;;;24.80;13.40;;;;;;;-142.75;100.00;78507.75;5014744;28;20026;-64
2023/04/18 00:54:46;;;;;;;24.77;12.70;;;;;;;-142.75;100.00;78523.50;5014550;28;20025;-63
2023/04/18 00:57:11;;;;;;;22.83;11.93;;;;;;;-142.75;100.00;78549.09;5014586;28;20050;-63
2023/04/18 00:59:37;;;;;;;21.67;12.07;;;;;;;-142.75;100.00;78551.06;5014670;28;20061;-63
2023/04/18 01:02:03;;;;;;;21.70;11.23;;;;;;;-142.75;100.00;78555.00;5014637;28;20091;-64
2023/04/18 01:04:29;;;;;;;22.53;12.10;;;;;;;-142.75;100.00;78562.88;4996523;28;20029;-64
2023/04/18 01:06:55;;;;;;;23.00;12.87;;;;;;;-142.75;100.00;78584.56;5014526;28;20025;-63
2023/04/18 01:09:23;;;;;;;17.33;10.70;;;;;;;-142.75;100.00;78580.59;5012986;28;20520;-64
2023/04/18 01:11:49;;;;;;;20.70;11.57;;;;;;;-142.75;100.00;78586.53;5014521;28;20449;-64
2023/04/18 01:14:14;;;;;;;24.07;11.30;;;;;;;-142.75;100.00;78582.59;5014171;28;20041;-64
2023/04/18 01:16:40;;;;;;;23.33;12.67;;;;;;;-142.75;100.00;78596.38;4997031;28;20030;-64
2023/04/18 01:19:05;;;;;;;24.33;11.90;;;;;;;-142.75;100.00;78578.63;5013907;28;20029;-63
2023/04/18 01:21:35;;;;;;;21.00;11.50;;;;;;;-142.75;100.00;78580.59;5014208;28;20037;-64
2023/04/18 01:24:10;;;;;;;20.97;11.50;;;;;;;-142.75;100.00;78586.53;4996447;28;20025;-64
2023/04/18 01:26:36;;;;;;;20.00;10.77;;;;;;;-142.75;100.00;78621.97;5014149;28;20640;-64
2023/04/18 01:29:01;;;;;;;17.33;10.33;;;;;;;-142.75;100.00;78629.84;5013905;28;20153;-65
2023/04/18 01:31:26;;;;;;;19.73;11.13;;;;;;;-142.75;100.00;78649.53;5013971;28;20489;-65
2023/04/18 01:33:52;;;;;;;20.07;9.93;;;;;;;-142.75;100.00;78641.66;5020998;28;20053;-63
2023/04/18 01:36:17;;;;;;;17.23;10.10;;;;;;;-142.75;100.00;78641.66;5032741;28;20104;-65
2023/04/18 01:38:42;;;;;;;18.47;9.97;;;;;;;-142.75;100.00;78649.53;5033495;28;20021;-65
2023/04/18 01:41:08;;;;;;;20.63;10.50;;;;;;;-142.75;100.00;78645.59;5033682;28;20021;-64
2023/04/18 01:43:33;;;;;;;19.80;10.33;;;;;;;-142.75;100.00;78661.34;5033312;28;20032;-64
2023/04/18 01:45:58;;;;;;;20.07;10.63;;;;;;;-142.75;100.00;78649.53;5033703;28;20018;-64
2023/04/18 01:48:24;;;;;;;17.87;9.73;;;;;;;-142.75;100.00;78657.41;5032240;28;20087;-64
2023/04/18 01:50:49;;;;;;;18.57;9.67;;;;;;;-142.75;100.00;78641.66;5031628;28;20029;-65
2023/04/18 01:53:16;;;;;;;22.00;10.20;;;;;;;-142.75;100.00;78649.53;5031630;28;20051;-64
2023/04/18 01:55:41;;;;;;;16.43;10.43;;;;;;;-142.75;100.00;78677.13;5033370;28;20033;-65
2023/04/18 01:58:07;;;;;;;18.67;10.17;;;;;;;-142.75;100.00;78677.13;5033018;28;20025;-65
2023/04/18 02:00:32;;;;;;;15.83;9.30;;;;;;;-142.75;100.00;78681.06;5033064;28;20443;-65
2023/04/18 02:02:58;;;;;;;15.70;8.43;;;;;;;-142.75;100.00;78688.94;5033482;28;20032;-64
2023/04/18 02:05:25;;;;;;;16.17;8.90;;;;;;;-142.75;100.00;78681.06;5033348;28;20370;-64
2023/04/18 02:07:51;;;;;;;15.43;8.77;;;;;;;-142.75;100.00;78681.06;5033130;28;20025;-64
2023/04/18 02:10:16;;;;;;;15.63;8.53;;;;;;;-142.75;100.00;78679.09;5033153;28;20095;-65
2023/04/18 02:12:42;;;;;;;16.03;8.63;;;;;;;-142.75;100.00;78685.00;5015264;28;20018;-64
2023/04/18 02:15:08;;;;;;;16.07;9.17;;;;;;;-142.75;100.00;78696.81;5032882;28;20489;-64
2023/04/18 02:17:34;;;;;;;14.07;8.77;;;;;;;-142.75;100.00;78718.47;5032800;28;20485;-63
2023/04/18 02:20:00;;;;;;;14.83;8.07;;;;;;;-142.75;100.00;78750.00;5032460;28;20397;-64
2023/04/18 02:22:25;;;;;;;15.90;8.23;;;;;;;-142.75;100.00;78755.91;5031638;28;20017;-63
2023/04/18 02:24:50;;;;;;;13.90;7.73;;;;;;;-142.75;100.00;78771.66;5032724;28;20014;-64
2023/04/18 02:27:17;;;;;;;12.70;7.73;;;;;;;-142.75;100.00;78769.69;5032647;28;20504;-64
2023/04/18 02:29:42;;;;;;;14.63;8.03;;;;;;;-142.75;100.00;78787.41;5015077;28;20161;-64
2023/04/18 02:32:07;;;;;;;10.80;7.07;;;;;;;-142.75;100.00;78779.53;5032639;28;20481;-65
2023/04/18 02:34:33;;;;;;;11.53;6.90;;;;;;;-142.75;100.00;78799.22;5032431;28;20505;-63
2023/04/18 02:36:58;;;;;;;13.37;6.80;;;;;;;-142.75;100.00;78809.06;5014813;28;20029;-62
2023/04/18 02:39:24;;;;;;;13.13;6.57;;;;;;;-142.75;100.00;78814.97;5032507;28;20052;-65
2023/04/18 02:41:49;;;;;;;12.00;6.90;;;;;;;-142.75;100.00;78811.03;5014786;28;20021;-64
2023/04/18 02:44:15;;;;;;;13.00;6.67;;;;;;;-142.75;100.00;78824.84;5032306;28;20060;-63
2023/04/18 02:46:41;;;;;;;11.63;6.23;;;;;;;-142.75;100.00;78828.78;5032439;28;20048;-64
2023/04/18 02:49:06;;;;;;;11.63;6.47;;;;;;;-142.75;100.00;78822.88;5032223;28;20025;-63
2023/04/18 02:51:32;;;;;;;14.77;6.63;;;;;;;-142.75;100.00;78830.75;5032293;28;20025;-63
2023/04/18 02:53:57;;;;;;;11.97;6.50;;;;;;;-142.75;100.00;78830.75;5032058;28;20071;-63
2023/04/18 02:56:22;;;;;;;13.77;6.27;;;;;;;-142.75;100.00;78842.56;5032218;28;20096;-64
2023/04/18 02:58:48;;;;;;;11.47;5.53;;;;;;;-142.75;100.00;78848.47;5014408;28;20511;-64
2023/04/18 03:01:16;;;;;;;12.63;5.50;;;;;;;-142.75;100.00;78834.69;5032173;28;20026;-64
2023/04/18 03:03:41;;;;;;;10.90;5.87;;;;;;;-142.75;100.00;78838.63;5031820;28;20035;-64
2023/04/18 03:06:06;;;;;;;11.17;6.50;;;;;;;-142.75;100.00;78832.72;5014027;28;20025;-64
2023/04/18 03:08:32;;;;;;;11.33;7.10;;;;;;;-142.75;100.00;78862.25;5031922;28;20029;-64
2023/04/18 03:10:57;;;;;;;8.63;5.63;;;;;;;-142.75;100.00;78850.44;5031133;28;20033;-64
2023/04/18 03:13:22;;;;;;;11.03;5.60;;;;;;;-142.75;100.00;78834.69;5031785;28;20128;-65
2023/04/18 03:15:48;;;;;;;13.70;6.43;;;;;;;-142.75;100.00;78850.44;5014342;28;20028;-64
2023/04/18 03:18:13;;;;;;;9.40;6.17;;;;;;;-142.75;100.00;78870.13;5031816;28;20477;-65
2023/04/18 03:20:39;;;;;;;9.47;5.93;;;;;;;-142.75;100.00;78868.16;5030711;28;20053;-64
2023/04/18 03:23:05;;;;;;;8.63;5.90;;;;;;;-142.75;100.00;78866.19;5031741;28;20022;-64
2023/04/18 03:25:31;;;;;;;13.37;6.33;;;;;;;-142.75;100.00;78881.94;5031835;28;20389;-65
2023/04/18 03:27:56;;;;;;;11.73;6.73;;;;;;;-142.75;100.00;78874.06;5031742;28;20025;-64
2023/04/18 03:30:22;;;;;;;12.10;6.03;;;;;;;-142.75;100.00;78881.94;5014059;28;20547;-64
2023/04/18 03:32:48;;;;;;;11.13;6.63;;;;;;;-142.75;100.00;78878.00;5031654;28;20028;-63
2023/04/18 03:35:13;;;;;;;12.23;6.23;;;;;;;-142.75;100.00;78878.00;5031591;28;20018;-64
2023/04/18 03:37:39;;;;;;;12.50;6.20;;;;;;;-142.75;100.00;78878.00;5031602;28;20033;-64
2023/04/18 03:40:05;;;;;;;12.00;6.30;;;;;;;-142.75;100.00;78883.91;5013954;28;20075;-65
2023/04/18 03:42:30;;;;;;;10.63;5.97;;;;;;;-142.75;100.00;78889.81;5031537;28;20049;-63
2023/04/18 03:44:55;;;;;;;13.37;6.57;;;;;;;-142.75;100.00;78891.78;5031564;28;20029;-64
2023/04/18 03:47:21;;;;;;;10.67;6.73;;;;;;;-142.75;100.00;78881.94;5013505;28;20033;-65
2023/04/18 03:49:46;;;;;;;11.13;6.70;;;;;;;-142.75;100.00;78879.97;5013851;28;20025;-64
2023/04/18 03:52:12;;;;;;;13.23;7.10;;;;;;;-142.75;100.00;78887.84;5031537;28;20049;-65
2023/04/18 03:54:37;;;;;;;11.70;6.60;;;;;;;-142.75;100.00;78885.88;5031226;28;20101;-64
2023/04/18 03:57:02;;;;;;;11.20;7.37;;;;;;;-142.75;100.00;78889.81;5013693;28;20380;-64
2023/04/18 03:59:28;;;;;;;17.17;6.53;;;;;;;-142.75;100.00;78878.00;5031582;28;20058;-64
2023/04/18 04:01:53;;;;;;;14.33;6.93;;;;;;;-142.75;100.00;78901.66;5031448;28;20021;-64
2023/04/18 04:04:19;;;;;;;14.03;7.70;;;;;;;-142.75;100.00;78901.66;5031108;28;20033;-65
2023/04/18 04:06:45;;;;;;;16.20;7.77;;;;;;;-142.75;100.00;78899.69;5013737;28;20032;-64
2023/04/18 04:09:10;;;;;;;15.07;7.13;;;;;;;-142.75;100.00;78905.59;5031177;28;20452;-65
2023/04/18 04:11:35;;;;;;;11.97;6.70;;;;;;;-142.75;100.00;78911.50;5031385;28;20045;-65
2023/04/18 04:14:01;;;;;;;15.07;7.07;;;;;;;-142.75;100.00;78915.44;5031133;28;20025;-65
2023/04/18 04:16:26;;;;;;;14.53;6.57;;;;;;;-142.75;100.00;78917.41;5031314;28;20026;-64
2023/04/18 04:18:52;;;;;;;12.73;6.50;;;;;;;-142.75;100.00;78917.41;5031224;28;20052;-63
2023/04/18 04:21:17;;;;;;;10.47;6.67;;;;;;;-142.75;100.00;78903.63;5031314;28;20067;-64
2023/04/18 04:23:42;;;;;;;11.53;7.40;;;;;;;-142.75;100.00;78889.81;5034834;28;20500;-64
2023/04/18 04:26:08;;;;;;;16.27;7.20;;;;;;;-142.75;100.00;78909.53;5035139;28;20425;-64
2023/04/18 04:28:34;;;;;;;12.77;7.70;;;;;;;-142.75;100.00;78893.78;5034916;28;20021;-64
2023/04/18 04:31:00;;;;;;;12.60;7.60;;;;;;;-142.75;100.00;78905.59;5000112;28;20519;-64
2023/04/18 04:33:32;;;;;;;12.13;7.20;;;;;;;-142.75;100.00;78899.69;5013026;28;20025;-64
2023/04/18 04:35:58;;;;;;;11.27;7.33;;;;;;;-142.75;100.00;78907.56;5013833;28;20446;-64
2023/04/18 04:38:23;;;;;;;13.83;7.00;;;;;;;-142.75;100.00;78923.31;5014051;28;20022;-63
2023/04/18 04:40:49;;;;;;;13.00;7.00;;;;;;;-142.75;100.00;78917.41;5013652;28;20029;-64
2023/04/18 04:43:15;;;;;;;11.53;6.67;;;;;;;-142.75;100.00;78927.25;5014702;28;20041;-63
2023/04/18 04:45:42;;;;;;;9.60;5.57;;;;;;;-142.75;100.00;78935.13;5024097;28;20021;-63
2023/04/18 04:48:08;;;;;;;16.43;7.83;;;;;;;-142.75;100.00;78909.53;5033901;28;20163;-64
2023/04/18 04:50:40;;;;;;;15.40;7.90;;;;;;;-142.75;100.00;78923.31;5016899;28;20034;-64
2023/04/18 04:53:05;;;;;;;15.30;7.37;;;;;;;-142.75;100.00;78948.91;5034388;28;20034;-61
2023/04/18 04:55:31;;;;;;;21.13;7.90;;;;;;;-142.75;100.00;78937.09;5034422;28;20374;-63
2023/04/18 04:57:57;;;;;;;15.00;7.33;;;;;;;-142.75;100.00;78937.09;5034305;28;20029;-63
2023/04/18 05:00:22;;;;;;;14.33;7.83;;;;;;;-142.75;100.00;78952.84;5033358;28;20459;-63
2023/04/18 05:02:48;;;;;;;15.67;8.23;;;;;;;-142.75;100.00;78954.81;5032327;28;20037;-63
2023/04/18 05:05:13;;;;;;;18.90;7.90;;;;;;;-142.75;100.00;78954.81;5032607;28;20022;-64
2023/04/18 05:07:39;;;;;;;13.67;7.70;;;;;;;-142.75;100.00;78952.84;5034157;28;20550;-64
2023/04/18 05:10:04;;;;;;;16.93;7.83;;;;;;;-142.75;100.00;78944.97;5034230;28;20432;-63
2023/04/18 05:12:30;;;;;;;16.30;7.30;;;;;;;-142.75;100.00;78943.00;5015776;28;20030;-64
2023/04/18 05:14:55;;;;;;;12.03;7.17;;;;;;;-142.75;100.00;78943.00;5014207;28;20034;-61
2023/04/18 05:17:21;;;;;;;14.33;7.57;;;;;;;-142.75;100.00;78931.19;5014174;28;20486;-63
2023/04/18 05:19:46;;;;;;;11.70;7.50;;;;;;;-142.75;100.00;78923.31;5014306;28;20036;-64
2023/04/18 05:22:11;;;;;;;16.43;8.00;;;;;;;-142.75;100.00;78915.44;5014244;28;20040;-64
2023/04/18 05:24:37;;;;;;;13.97;8.07;;;;;;;-142.75;100.00;78909.53;5013572;28;20029;-64
2023/04/18 05:27:02;;;;;;;16.27;7.80;;;;;;;-142.75;100.00;78907.56;4996482;28;20032;-64
2023/04/18 05:29:28;;;;;;;16.63;7.87;;;;;;;-142.75;100.00;78893.78;4996554;28;20114;-65
2023/04/18 05:31:54;;;;;;;15.70;7.87;;;;;;;-142.75;100.00;78901.66;5014101;28;20034;-64
2023/04/18 05:34:19;;;;;;;15.57;7.30;;;;;;;-142.75;100.00;78905.59;4995357;28;20117;-64
2023/04/18 05:36:46;;;;;;;16.13;8.20;;;;;;;-142.75;100.00;78887.84;5013917;28;20109;-64
2023/04/18 05:39:11;;;;;;;14.53;7.37;;;;;;;-142.75;100.00;78889.81;4995513;28;20033;-64
2023/04/18 05:41:37;;;;;;;22.67;7.57;;;;;;;-142.75;100.00;78881.94;5012322;28;20029;-65
2023/04/18 05:44:02;;;;;;;15.77;8.07;;;;;;;-142.75;100.00;78895.75;4999435;28;20400;-63
2023/04/18 05:46:28;;;;;;;16.60;8.13;;;;;;;-142.75;100.00;78889.81;5020804;28;20021;-63
2023/04/18 05:48:53;;;;;;;12.93;7.37;;;;;;;-142.75;100.00;78889.81;5014882;28;20516;-64
2023/04/18 05:51:18;;;;;;;11.73;7.77;;;;;;;-142.75;100.00;78879.97;5015688;28;20048;-63
2023/04/18 05:53:44;;;;;;;15.33;8.20;;;;;;;-142.75;100.00;78878.00;5025347;28;20033;-64
2023/04/18 05:56:09;;;;;;;12.37;7.47;;;;;;;-142.75;100.00;78876.03;5012021;28;20119;-64
2023/04/18 05:58:34;;;;;;;14.03;8.10;;;;;;;-142.75;100.00;78878.00;4993930;28;20177;-64
2023/04/18 06:01:00;;;;;;;15.57;8.30;;;;;;;-142.75;100.00;78870.13;4994735;28;20032;-64
2023/04/18 06:03:25;;;;;;;16.57;8.80;;;;;;;-142.75;100.00;78872.09;4990701;28;20026;-64
2023/04/18 06:05:51;;;;;;;17.10;8.40;;;;;;;-142.75;100.00;78842.56;5006818;28;20041;-65
2023/04/18 06:08:16;;;;;;;16.10;8.10;;;;;;;-142.75;100.00;78854.38;5007502;28;20083;-66
2023/04/18 06:10:42;;;;;;;16.67;7.97;;;;;;;-142.75;100.00;78846.50;5013003;28;20114;-64
2023/04/18 06:13:07;;;;;;;11.40;7.40;;;;;;;-142.75;100.00;78846.50;5012696;28;20062;-65
2023/04/18 06:15:33;;;;;;;28.03;8.77;;;;;;;-142.75;100.00;78838.63;5012318;28;20048;-65
2023/04/18 06:17:59;;;;;;;14.10;8.00;;;;;;;-142.75;100.00;78834.69;5012727;28;20030;-65
2023/04/18 06:20:24;;;;;;;13.20;8.37;;;;;;;-142.75;100.00;78822.88;4995041;28;20062;-65
2023/04/18 06:22:49;;;;;;;15.23;8.80;;;;;;;-142.75;100.00;78842.56;5012704;28;20033;-65
2023/04/18 06:25:15;;;;;;;14.60;7.77;;;;;;;-142.75;100.00;78848.47;5012710;28;20025;-65
2023/04/18 06:27:40;;;;;;;15.40;8.30;;;;;;;-142.75;100.00;78854.38;5012476;28;20022;-64
2023/04/18 06:30:07;;;;;;;16.93;8.87;;;;;;;-142.75;100.00;78840.59;5011305;28;20382;-64
2023/04/18 06:32:32;;;;;;;14.23;7.93;;;;;;;-142.75;100.00;78838.63;5012339;28;20064;-62
2023/04/18 06:34:57;;;;;;;15.10;8.27;;;;;;;-142.75;100.00;78854.38;4994748;28;20180;-64
2023/04/18 06:37:23;;;;;;;14.07;7.83;;;;;;;-142.75;100.00;78836.66;5012171;28;20029;-64
2023/04/18 06:39:48;;;;;;;12.10;7.20;;;;;;;-142.75;100.00;78840.59;5006940;28;20033;-63
2023/04/18 06:42:14;;;;;;;18.53;8.57;;;;;;;-142.75;100.00;78830.75;4992275;28;20030;-65
2023/04/18 06:44:41;;;;;;;15.97;8.83;;;;;;;-142.75;100.00;78822.88;5011825;28;20029;-63
2023/04/18 06:47:07;;;;;;;14.27;8.23;;;;;;;-142.75;100.00;78816.94;5009155;28;20026;-64
2023/04/18 06:49:32;;;;;;;13.13;8.07;;;;;;;-142.75;100.00;78807.09;4994229;28;20022;-65
2023/04/18 06:51:57;;;;;;;11.30;6.90;;;;;;;-142.75;100.00;78801.19;5012029;28;20615;-64
2023/04/18 06:54:23;;;;;;;14.13;8.33;;;;;;;-142.75;100.00;78779.53;4993971;28;20569;-64
2023/04/18 06:56:48;;;;;;;15.97;8.00;;;;;;;-142.75;100.00;78779.53;5011967;28;20030;-63
2023/04/18 06:59:14;;;;;;;12.73;7.53;;;;;;;-142.75;100.00;78755.91;5001886;28;20478;-63
2023/04/18 07:01:40;;;;;;;13.53;7.63;;;;;;;-142.75;100.00;78755.91;5006167;28;20485;-65
2023/04/18 07:04:06;;;;;;;13.13;7.30;;;;;;;-142.75;100.00;78748.03;5001827;28;20030;-63
2023/04/18 07:06:32;;;;;;;17.13;7.80;;;;;;;-142.75;100.00;78740.13;5005863;28;20033;-65
2023/04/18 07:09:00;;;;;;;12.63;8.10;;;;;;;-142.75;100.00;78728.31;5001925;28;20036;-63
2023/04/18 07:11:25;;;;;;;16.57;7.97;;;;;;;-142.75;100.00;78712.56;4983967;28;20027;-66
2023/04/18 07:13:50;;;;;;;15.70;7.53;;;;;;;-142.75;100.00;78720.44;5007728;28;20033;-64
2023/04/18 07:16:16;;;;;;;14.63;7.73;;;;;;;-142.75;100.00;78710.59;5001337;28;20034;-64
2023/04/18 07:18:41;;;;;;;15.07;7.77;;;;;;;-142.75;100.00;78696.81;5005891;28;20502;-64
2023/04/18 07:21:07;;;;;;;15.37;7.47;;;;;;;-142.75;100.00;78696.81;5006695;28;20026;-66
2023/04/18 07:23:32;;;;;;;11.90;8.00;;;;;;;-142.75;100.00;78692.88;5003731;28;20104;-67
2023/04/18 07:26:00;;;;;;;17.27;8.37;;;;;;;-142.75;100.00;78663.31;5003679;28;20076;-66
2023/04/18 07:28:25;;;;;;;15.07;8.27;;;;;;;-142.75;100.00;78690.91;4992737;28;20018;-66
2023/04/18 07:30:50;;;;;;;13.43;7.40;;;;;;;-142.75;100.00;78686.97;5007043;28;20152;-66
2023/04/18 07:33:16;;;;;;;14.10;8.30;;;;;;;-142.75;100.00;78688.94;4991375;28;20026;-66
2023/04/18 07:35:44;;;;;;;13.23;8.13;;;;;;;-142.75;100.00;78671.22;5003569;28;20025;-66
2023/04/18 07:38:11;;;;;;;14.73;8.00;;;;;;;-142.75;100.00;78677.13;5011259;28;20028;-64
2023/04/18 07:40:36;;;;;;;15.10;7.77;;;;;;;-142.75;100.00;78686.97;5011379;28;20058;-64
2023/04/18 07:43:01;;;;;;;14.57;8.20;;;;;;;-142.75;100.00;78671.22;4991396;28;20021;-63
2023/04/18 07:45:27;;;;;;;17.67;7.33;;;;;;;-142.75;100.00;78675.16;5001461;28;20500;-62
2023/04/18 07:47:52;;;;;;;12.70;7.40;;;;;;;-142.75;100.00;78690.91;4991857;28;20026;-63
2023/04/18 07:50:17;;;;;;;14.43;7.77;;;;;;;-142.75;100.00;78696.81;5010717;28;20109;-63
2023/04/18 07:52:46;;;;;;;17.13;8.90;;;;;;;-142.75;100.00;78690.91;4993692;28;20014;-62
2023/04/18 07:55:12;;;;;;;13.07;7.73;;;;;;;-142.75;100.00;78681.06;5011297;28;20544;-64
2023/04/18 07:57:37;;;;;;;13.60;7.17;;;;;;;-142.75;100.00;78675.16;5013772;28;20050;-65
2023/04/18 08:00:03;;;;;;;13.27;7.57;;;;;;;-142.75;100.00;78686.97;4997991;28;20573;-65
2023/04/18 08:02:28;;;;;;;10.87;6.63;;;;;;;-142.75;100.00;78675.16;4998097;28;20018;-65
2023/04/18 08:04:54;;;;;;;14.27;7.27;;;;;;;-142.75;100.00;78669.25;5015846;28;20033;-65
2023/04/18 08:07:20;;;;;;;13.40;7.37;;;;;;;-142.75;100.00;78685.00;5015652;28;20087;-65
2023/04/18 08:09:45;;;;;;;12.77;7.93;;;;;;;-142.75;100.00;78663.31;4998029;28;20025;-66
2023/04/18 08:12:10;;;;;;;13.57;8.13;;;;;;;-142.75;100.00;78649.53;5015664;28;20460;-66
2023/04/18 08:14:36;;;;;;;10.40;6.33;;;;;;;-142.75;100.00;78651.50;5015330;28;20030;-65
2023/04/18 08:17:01;;;;;;;12.17;7.40;;;;;;;-142.75;100.00;78647.56;4998009;28;20121;-66
2023/04/18 08:19:26;;;;;;;11.77;6.20;;;;;;;-142.75;100.00;78645.59;5015357;28;20108;-65
2023/04/18 08:21:52;;;;;;;14.97;8.33;;;;;;;-142.75;100.00;78625.91;5015468;28;20026;-65
2023/04/18 08:24:19;;;;;;;11.93;6.97;;;;;;;-142.75;100.00;78618.03;5015177;28;20022;-65
2023/04/18 08:26:45;;;;;;;14.03;7.83;;;;;;;-142.75;100.00;78580.59;5015453;28;20052;-66
2023/04/18 08:29:10;;;;;;;14.70;7.70;;;;;;;-142.75;100.00;78586.53;5014685;28;20045;-65
2023/04/18 08:31:35;;;;;;;10.60;6.83;;;;;;;-142.75;100.00;78574.69;5014791;28;20017;-66
2023/04/18 08:34:01;;;;;;;11.47;6.57;;;;;;;-142.75;100.00;78553.03;5014480;28;20033;-65
2023/04/18 08:36:26;;;;;;;14.87;7.23;;;;;;;-142.75;100.00;78543.19;4996948;28;20025;-66
2023/04/18 08:38:52;;;;;;;12.80;6.90;;;;;;;-142.75;100.00;78555.00;4996865;28;20044;-65
2023/04/18 08:41:21;;;;;;;13.00;7.00;;;;;;;-142.75;100.00;78553.03;5014425;28;20378;-64
2023/04/18 08:43:47;;;;;;;11.13;6.53;;;;;;;-142.75;100.00;78555.00;5014392;28;20113;-67
2023/04/18 08:46:13;;;;;;;10.70;6.43;;;;;;;-142.75;100.00;78570.75;5013471;28;20022;-66
2023/04/18 08:48:38;;;;;;;10.00;6.67;;;;;;;-142.75;100.00;78560.91;4997167;28;20025;-66
2023/04/18 08:51:04;;;;;;;14.57;7.17;;;;;;;-142.75;100.00;78558.94;5014580;28;20037;-64
2023/04/18 08:53:32;;;;;;;12.47;6.27;;;;;;;-142.75;100.00;78523.50;5014372;28;20018;-64
2023/04/18 08:55:59;;;;;;;11.70;6.57;;;;;;;-142.75;100.00;78505.78;5014784;28;20032;-64
2023/04/18 08:58:26;;;;;;;14.87;7.50;;;;;;;-142.75;100.00;78488.03;4996977;28;20026;-63
2023/04/18 09:00:53;;;;;;;12.63;7.30;;;;;;;-142.75;100.00;78454.56;5014712;28;20083;-65
2023/04/18 09:03:38;;;;;;;11.60;7.03;;;;;;;-142.75;100.00;78428.97;5014286;28;20026;-64
2023/04/18 09:06:12;;;;;;;13.50;6.97;;;;;;;-142.75;100.00;78393.50;4996313;28;20482;-64
2023/04/18 09:08:41;;;;;;;11.20;6.95;;;;;;;-142.75;100.00;78428.97;4995515;28;20021;-66
2023/04/18 09:11:20;;;;;;;11.60;6.82;;;;;;;-142.75;100.00;78415.19;5014533;28;20417;-65
2023/04/18 09:13:46;;;;;;;12.60;6.15;;;;;;;-142.75;100.00;78397.44;5014319;28;20539;-64
2023/04/18 09:16:13;;;;;;;11.40;6.55;;;;;;;-142.75;100.00;78413.22;4996893;28;20397;-65
2023/04/18 09:18:41;;;;;;;11.32;6.38;;;;;;;-142.75;100.00;78417.16;5014234;28;20030;-66
2023/04/18 09:21:20;;;;;;;12.55;6.43;;;;;;;-142.75;100.00;78413.22;5014372;28;20018;-66
2023/04/18 09:23:46;;;;;;;12.82;6.40;;;;;;;-142.75;100.00;78430.94;4996589;28;20131;-66
2023/04/18 09:26:12;;;;;;;8.88;5.95;;;;;;;-142.75;100.00;78425.03;5014264;28;20022;-65
2023/04/18 09:28:40;;;;;;;9.93;6.43;;;;;;;-142.75;100.00;78371.84;5014098;28;20026;-65
2023/04/18 09:31:14;;;;;;;11.43;6.30;;;;;;;-142.75;100.00;78360.03;5013931;28;20385;-65
2023/04/18 09:33:51;;;;;;;9.10;5.93;;;;;;;-142.75;100.00;78369.88;5013958;28;20037;-65
2023/04/18 09:36:20;;;;;;;8.77;5.25;;;;;;;-142.75;100.00;78360.03;4996500;28;20164;-64
2023/04/18 09:38:47;;;;;;;10.50;5.93;;;;;;;-142.75;100.00;78354.13;5013914;28;20080;-66
2023/04/18 09:41:17;;;;;;;12.93;5.90;;;;;;;-142.75;100.00;78338.38;5013973;28;20032;-65
2023/04/18 09:43:45;;;;;;;10.10;6.03;;;;;;;-142.75;100.00;78320.66;5013546;28;20017;-64
2023/04/18 09:46:12;;;;;;;12.23;5.75;;;;;;;-142.75;100.00;78299.00;5014008;28;20009;-64
2023/04/18 09:48:38;;;;;;;11.32;5.35;;;;;;;-142.75;100.00;78302.94;5012838;28;20025;-64
2023/04/18 09:51:06;;;;;;;11.13;5.47;;;;;;;-142.75;100.00;78302.94;5013834;28;20041;-64
2023/04/18 09:53:36;;;;;;;11.35;5.88;;;;;;;-142.75;100.00;78320.66;5013648;28;20417;-65
2023/04/18 09:56:05;;;;;;;10.38;5.88;;;;;;;-142.75;100.00;78287.16;5013666;28;20018;-64
2023/04/18 09:58:33;;;;;;;9.18;5.45;;;;;;;-142.75;100.00;78222.19;5013472;28;20060;-65
2023/04/18 10:00:58;;;;;;;10.00;5.68;;;;;;;-142.75;100.00;78222.19;4995982;28;20351;-64
2023/04/18 10:03:31;;;;;;;9.10;5.60;;;;;;;-142.75;100.00;78226.13;5013257;28;20056;-63
2023/04/18 10:05:57;;;;;;;10.93;5.68;;;;;;;-142.75;100.00;78200.53;5013555;28;20024;-64
2023/04/18 10:08:22;;;;;;;9.70;6.00;;;;;;;-142.75;100.00;78228.09;4995759;28;20022;-65
2023/04/18 10:10:48;;;;;;;8.65;5.72;;;;;;;-142.75;100.00;78230.06;5013447;28;20101;-65
2023/04/18 10:13:13;;;;;;;9.52;6.05;;;;;;;-142.75;100.00;78271.41;5013065;28;20022;-63
2023/04/18 10:15:39;;;;;;;9.07;5.60;;;;;;;-142.75;100.00;78271.41;5013058;28;20028;-64
2023/04/18 10:18:15;;;;;;;8.93;5.15;;;;;;;-142.75;100.00;78247.78;5013159;28;20018;-65
2023/04/18 10:20:40;;;;;;;9.65;5.60;;;;;;;-142.75;100.00;78212.34;5012933;28;20022;-65
2023/04/18 10:23:31;;;;;;;9.82;5.47;;;;;;;-142.75;100.00;78125.69;5012991;28;20033;-64
2023/04/18 10:25:57;;;;;;;9.50;5.47;;;;;;;-142.75;100.00;78172.94;5013043;28;20164;-64
2023/04/18 10:28:26;;;;;;;9.77;5.05;;;;;;;-142.75;100.00;78129.63;4995369;28;20068;-64
2023/04/18 10:31:11;;;;;;;8.00;4.85;;;;;;;-142.75;100.00;78113.88;4993398;28;20038;-64
2023/04/18 10:33:39;;;;;;;9.85;5.28;;;;;;;-142.75;100.00;78106.00;4993235;28;20027;-64
2023/04/18 10:36:07;;;;;;;7.78;4.70;;;;;;;-142.75;100.00;78157.19;5002677;28;20520;-64
2023/04/18 10:38:33;;;;;;;8.10;4.47;;;;;;;-142.75;100.00;78145.38;5012198;28;20022;-64
2023/04/18 10:41:21;;;;;;;8.50;5.32;;;;;;;-142.75;100.00;78111.91;4994845;28;20572;-65
2023/04/18 10:44:05;;;;;;;6.30;4.32;;;;;;;-142.75;100.00;78121.75;5012397;28;20560;-63
2023/04/18 10:46:30;;;;;;;6.50;4.15;;;;;;;-142.75;100.00;78141.44;4994460;28;20120;-64
2023/04/18 10:49:31;;;;;;;9.07;4.78;;;;;;;-142.75;100.00;78161.13;5012160;28;20145;-63
2023/04/18 10:51:58;;;;;;;6.75;3.70;;;;;;;-142.75;100.00;78186.75;4946325;29;20027;-63
2023/04/18 10:54:36;;;;;;;7.15;3.95;;;;;;;-142.75;100.00;78174.91;5000261;28;20124;-62
2023/04/18 10:57:03;;;;;;;9.18;4.53;;;;;;;-142.75;100.00;78147.34;5012520;28;20037;-60
2023/04/18 10:59:31;;;;;;;6.95;4.03;;;;;;;-142.75;100.00;78161.13;4994871;28;20420;-63